Time;durP1;ratioP1;P1;durP2;ratioP2;P2;SDS_P1;SDS_P2;PMS_P1;PMS_P2;Temp;Humidity;BMP_temperature;BMP_pressure;BME280_temperature;BME280_humidity;BME280_pressure;Samples;Min_cycle;Max_cycle;Signal;HPM_P1;HPM_P2
2021/01/18 00:00:54;;;;;;;117.67;28.17;;;;;;;-14.41;50.82;100833.92;147040;1150;104473;-70
2021/01/18 00:03:57;;;;;;;108.12;29.18;;;;;;;-14.46;50.65;100828.72;147149;1151;104543;-70
2021/01/18 00:07:05;;;;;;;118.65;29.02;;;;;;;-14.51;50.63;100824.38;147192;1150;104605;-70
2021/01/18 00:10:10;;;;;;;117.00;28.40;;;;;;;-14.48;50.84;100825.28;147094;1150;104442;-70
2021/01/18 00:13:13;;;;;;;122.80;32.37;;;;;;;-14.55;50.52;100817.52;146997;1150;104559;-70
2021/01/18 00:16:17;;;;;;;121.13;30.68;;;;;;;-14.59;50.59;100811.52;147020;1150;104551;-70
2021/01/18 00:19:21;;;;;;;118.47;30.15;;;;;;;-14.55;50.77;100814.95;147000;1151;104470;-71
2021/01/18 00:22:24;;;;;;;132.22;32.50;;;;;;;-14.57;50.86;100819.23;146991;1150;104499;-70
2021/01/18 00:25:28;;;;;;;132.27;34.53;;;;;;;-14.53;50.31;100818.39;147044;1150;104557;-68
2021/01/18 00:28:32;;;;;;;119.02;32.17;;;;;;;-14.60;50.67;100814.05;147034;1151;104474;-69
2021/01/18 00:31:35;;;;;;;109.48;31.70;;;;;;;-14.64;50.53;100816.60;147066;1150;104918;-69
2021/01/18 00:34:39;;;;;;;102.95;30.23;;;;;;;-14.64;50.38;100816.60;147055;1150;104585;-68
2021/01/18 00:37:44;;;;;;;94.10;26.50;;;;;;;-14.70;50.50;100824.22;147036;1150;104607;-67
2021/01/18 00:40:48;;;;;;;121.65;28.75;;;;;;;-14.77;50.07;100816.44;147069;1149;104660;-67
2021/01/18 00:43:51;;;;;;;101.00;28.17;;;;;;;-14.76;50.37;100819.00;147044;1149;104566;-68
2021/01/18 00:46:54;;;;;;;113.20;30.00;;;;;;;-14.79;50.37;100821.53;147071;1151;104469;-70
2021/01/18 00:49:58;;;;;;;105.20;30.48;;;;;;;-14.77;50.63;100811.31;146789;1151;104624;-68
2021/01/18 00:53:01;;;;;;;92.72;27.40;;;;;;;-14.76;50.61;100826.68;147079;1150;104668;-69
2021/01/18 00:56:06;;;;;;;104.12;30.05;;;;;;;-14.73;50.50;100826.73;146643;1150;104391;-68
2021/01/18 00:59:13;;;;;;;103.27;29.18;;;;;;;-14.72;50.14;100823.34;146583;1150;105154;-71
2021/01/18 01:02:24;;;;;;;92.92;26.93;;;;;;;-14.72;50.35;100818.22;146529;1150;104474;-70
2021/01/18 01:05:29;;;;;;;91.90;26.00;;;;;;;-14.72;50.66;100831.02;146663;1150;104549;-70
2021/01/18 01:08:32;;;;;;;96.50;27.67;;;;;;;-14.74;50.21;100822.47;146629;1151;104639;-72
2021/01/18 01:11:42;;;;;;;94.58;30.72;;;;;;;-14.68;50.63;100813.97;147041;1151;104469;-69
2021/01/18 01:14:45;;;;;;;84.30;25.20;;;;;;;-14.60;50.34;100816.62;147048;1150;104498;-69
2021/01/18 01:17:48;;;;;;;98.40;27.40;;;;;;;-14.51;50.48;100814.14;147078;1150;104607;-70
2021/01/18 01:20:52;;;;;;;93.35;28.40;;;;;;;-14.42;50.49;100815.09;147059;1150;104705;-67
2021/01/18 01:23:56;;;;;;;99.22;27.35;;;;;;;-14.34;50.72;100810.05;146723;1150;104729;-69
2021/01/18 01:26:59;;;;;;;102.92;28.07;;;;;;;-14.33;50.64;100809.23;146971;1150;104506;-68
2021/01/18 01:30:03;;;;;;;100.70;25.90;;;;;;;-14.44;50.48;100813.37;147052;1150;104487;-70
2021/01/18 01:33:07;;;;;;;93.00;27.73;;;;;;;-14.53;50.63;100808.14;147054;1150;104567;-69
2021/01/18 01:36:11;;;;;;;100.03;26.97;;;;;;;-14.61;50.66;100807.23;147063;1150;104526;-70
2021/01/18 01:39:14;;;;;;;87.65;24.82;;;;;;;-14.63;50.52;100810.62;147088;1150;105083;-69
2021/01/18 01:42:22;;;;;;;80.07;25.57;;;;;;;-14.57;50.39;100811.55;146941;1151;104460;-68
2021/01/18 01:45:25;;;;;;;82.00;22.98;;;;;;;-14.61;50.39;100805.52;146844;1150;104547;-69
2021/01/18 01:48:28;;;;;;;87.15;24.57;;;;;;;-14.60;50.43;100808.94;146824;1151;104515;-70
2021/01/18 01:51:33;;;;;;;88.10;24.15;;;;;;;-14.64;50.35;100808.91;146882;1150;104524;-71
2021/01/18 01:54:39;;;;;;;83.60;24.47;;;;;;;-14.65;50.34;100802.06;146860;1149;104627;-72
2021/01/18 01:57:42;;;;;;;84.62;22.30;;;;;;;-14.67;50.25;100793.50;146744;1150;104610;-73
2021/01/18 02:00:45;;;;;;;73.17;23.75;;;;;;;-14.78;49.89;100795.06;146796;1151;104518;-72
2021/01/18 02:03:51;;;;;;;79.22;21.93;;;;;;;-14.90;50.07;100790.66;146752;1148;104519;-72
2021/01/18 02:06:55;;;;;;;90.10;24.67;;;;;;;-14.98;50.42;100792.27;146740;1150;104553;-72
2021/01/18 02:09:58;;;;;;;73.07;22.43;;;;;;;-14.96;49.94;100789.73;146779;1150;104621;-71
2021/01/18 02:13:05;;;;;;;84.55;23.15;;;;;;;-14.93;50.29;100790.64;147171;1150;104503;-71
2021/01/18 02:16:18;;;;;;;104.05;26.27;;;;;;;-14.88;50.26;100799.22;147048;1150;104588;-72
2021/01/18 02:20:15;;;;;;;75.22;21.85;;;;;;;-14.90;50.35;100800.05;146956;1149;104519;-71
2021/01/18 02:23:45;;;;;;;79.50;20.57;;;;;;;-14.93;49.77;100800.88;146765;1151;104471;-72
2021/01/18 02:27:12;;;;;;;72.25;19.57;;;;;;;-14.92;50.29;100799.17;146923;1151;104548;-71
2021/01/18 02:30:39;;;;;;;61.83;19.73;;;;;;;-14.97;49.81;100803.36;146610;1151;104460;-70
2021/01/18 02:34:20;;;;;;;72.53;20.70;;;;;;;-14.97;50.19;100804.25;146838;1150;104540;-71
2021/01/18 02:37:46;;;;;;;80.57;20.52;;;;;;;-14.97;49.75;100816.16;146806;1150;104551;-70
2021/01/18 02:41:11;;;;;;;83.27;20.65;;;;;;;-14.98;49.72;100809.34;146915;1150;104564;-70
2021/01/18 02:44:18;;;;;;;72.90;20.80;;;;;;;-15.02;49.86;100813.55;146686;1150;104583;-70
2021/01/18 02:47:23;;;;;;;75.57;21.07;;;;;;;-14.99;50.53;100811.02;146895;1151;104550;-70
2021/01/18 02:50:27;;;;;;;107.22;25.68;;;;;;;-14.93;50.24;100820.48;147060;1150;104566;-70
2021/01/18 02:53:30;;;;;;;79.97;23.77;;;;;;;-14.99;49.77;100810.16;146942;1150;104417;-70
2021/01/18 02:56:34;;;;;;;77.27;19.17;;;;;;;-15.09;49.61;100815.16;146796;1151;104660;-70
2021/01/18 02:59:37;;;;;;;74.47;22.62;;;;;;;-15.13;49.87;100817.66;146923;1151;104562;-70
2021/01/18 03:02:53;;;;;;;62.75;20.08;;;;;;;-15.12;49.66;100819.41;146811;1150;104483;-68
2021/01/18 03:06:07;;;;;;;79.77;21.02;;;;;;;-15.08;49.76;100822.02;146666;1150;104598;-70
2021/01/18 03:09:19;;;;;;;76.77;19.42;;;;;;;-15.10;49.60;100810.89;148452;1151;104930;-70
2021/01/18 03:12:28;;;;;;;71.37;20.35;;;;;;;-15.08;49.78;100811.77;147010;1149;104547;-72
2021/01/18 03:15:37;;;;;;;71.80;20.15;;;;;;;-15.04;49.57;100805.00;146799;1149;104623;-68
2021/01/18 03:18:42;;;;;;;61.47;19.13;;;;;;;-15.03;49.69;100806.70;146668;1151;104567;-73
2021/01/18 03:21:47;;;;;;;68.65;20.90;;;;;;;-15.00;49.96;100814.44;146860;1151;106354;-71
2021/01/18 03:24:50;;;;;;;74.95;20.15;;;;;;;-15.10;49.26;100803.21;147116;1149;104483;-72
2021/01/18 03:27:57;;;;;;;64.12;19.62;;;;;;;-15.25;49.77;100798.73;146966;1150;104518;-72
2021/01/18 03:31:00;;;;;;;54.55;19.15;;;;;;;-15.22;49.51;100797.91;146751;1150;104724;-71
2021/01/18 03:34:04;;;;;;;65.12;18.77;;;;;;;-15.19;49.84;100808.20;147020;1149;104541;-71
2021/01/18 03:37:07;;;;;;;74.42;20.65;;;;;;;-15.17;49.55;100796.28;146796;1148;105004;-70
2021/01/18 03:40:11;;;;;;;63.05;19.27;;;;;;;-15.14;49.94;100798.02;146828;1150;104558;-69
2021/01/18 03:43:14;;;;;;;62.83;21.50;;;;;;;-15.12;49.62;100791.24;146990;1150;104502;-71
2021/01/18 03:46:18;;;;;;;61.30;18.45;;;;;;;-15.08;50.19;100783.61;146876;1150;104697;-68
2021/01/18 03:49:21;;;;;;;60.90;19.40;;;;;;;-15.04;49.71;100785.37;147134;1150;104479;-70
2021/01/18 03:52:24;;;;;;;67.13;19.90;;;;;;;-15.00;49.66;100782.86;147211;1149;104487;-72
2021/01/18 03:55:28;;;;;;;61.90;18.85;;;;;;;-14.98;49.65;100786.30;147015;1149;104503;-71
2021/01/18 03:58:31;;;;;;;73.60;21.07;;;;;;;-14.93;49.97;100789.75;147037;1150;104504;-68
2021/01/18 04:01:39;;;;;;;57.80;19.10;;;;;;;-14.83;50.09;100796.73;146791;1148;104589;-69
2021/01/18 04:04:42;;;;;;;58.98;20.52;;;;;;;-14.74;50.03;100788.28;146974;1151;104572;-69
2021/01/18 04:07:47;;;;;;;62.25;19.92;;;;;;;-14.69;50.08;100787.50;146951;1151;105014;-69
2021/01/18 04:10:51;;;;;;;62.85;20.15;;;;;;;-14.60;50.38;100780.75;147069;1150;104554;-69
2021/01/18 04:13:54;;;;;;;65.35;18.30;;;;;;;-14.52;50.28;100774.84;147074;1151;104551;-69
2021/01/18 04:16:57;;;;;;;56.80;17.83;;;;;;;-14.39;50.44;100773.29;147080;1150;104623;-69
2021/01/18 04:20:00;;;;;;;67.80;19.83;;;;;;;-14.26;50.75;100779.37;147035;1149;104483;-67
2021/01/18 04:23:04;;;;;;;92.80;23.90;;;;;;;-14.11;50.61;100770.98;147055;1149;104557;-67
2021/01/18 04:26:08;;;;;;;101.57;25.17;;;;;;;-14.02;50.67;100765.94;147046;1150;104492;-69
2021/01/18 04:29:11;;;;;;;83.82;23.95;;;;;;;-13.89;50.81;100767.77;147023;1150;104560;-69
2021/01/18 04:32:14;;;;;;;75.53;22.57;;;;;;;-13.76;51.26;100767.84;147095;1150;104607;-69
2021/01/18 04:35:18;;;;;;;72.30;22.07;;;;;;;-13.62;51.30;100752.55;147023;1151;104610;-67
2021/01/18 04:38:21;;;;;;;78.63;20.93;;;;;;;-13.53;51.14;100743.20;146645;1150;104562;-69
2021/01/18 04:41:25;;;;;;;77.53;21.37;;;;;;;-13.39;51.65;100755.27;146866;1149;104536;-68
2021/01/18 04:44:29;;;;;;;72.23;19.77;;;;;;;-13.32;51.28;100759.59;147054;1150;104550;-68
2021/01/18 04:47:36;;;;;;;80.25;19.87;;;;;;;-13.25;51.12;100753.62;146776;1150;104505;-67
2021/01/18 04:50:40;;;;;;;76.65;19.30;;;;;;;-13.12;51.52;100750.27;147012;1150;104510;-70
2021/01/18 04:53:53;;;;;;;68.80;20.68;;;;;;;-12.99;51.42;100750.31;146905;1151;104524;-71
2021/01/18 04:57:14;;;;;;;74.90;19.60;;;;;;;-12.88;51.95;100748.65;146990;1151;104550;-68
2021/01/18 05:00:21;;;;;;;57.93;16.17;;;;;;;-12.80;51.54;100752.09;147063;1148;104593;-68
2021/01/18 05:03:26;;;;;;;67.27;18.15;;;;;;;-12.70;52.02;100756.44;146976;1149;104483;-69
2021/01/18 05:06:46;;;;;;;66.90;18.75;;;;;;;-12.60;51.83;100749.61;147063;1151;104474;-69
2021/01/18 05:09:56;;;;;;;78.30;21.73;;;;;;;-12.50;52.31;100741.06;146999;1149;104505;-68
2021/01/18 05:13:02;;;;;;;84.03;19.95;;;;;;;-12.42;52.04;100740.22;146625;1150;104490;-69
2021/01/18 05:16:08;;;;;;;79.95;19.25;;;;;;;-12.36;52.05;100743.65;146995;1150;104508;-68
2021/01/18 05:19:12;;;;;;;74.35;20.08;;;;;;;-12.33;51.61;100743.67;147065;1151;104613;-68
2021/01/18 05:22:16;;;;;;;91.00;20.27;;;;;;;-12.31;52.27;100741.95;147085;1150;104480;-68
2021/01/18 05:25:20;;;;;;;75.75;21.20;;;;;;;-12.25;51.55;100751.39;147019;1151;104555;-68
2021/01/18 05:28:24;;;;;;;79.75;20.80;;;;;;;-12.19;52.17;100750.55;147060;1149;104550;-67
2021/01/18 05:31:35;;;;;;;78.33;20.60;;;;;;;-12.15;51.90;100749.69;147013;1151;104540;-68
2021/01/18 05:34:37;;;;;;;;;;;;;;;-12.09;52.50;100753.11;147076;1151;104490;-69
2021/01/18 05:37:59;;;;;;;60.03;16.37;;;;;;;-12.06;52.72;100757.42;147039;1150;104486;-68
2021/01/18 05:41:03;;;;;;;62.78;18.70;;;;;;;-12.00;51.87;100767.71;147067;1149;104474;-68
2021/01/18 05:44:07;;;;;;;83.10;21.30;;;;;;;-11.92;52.62;100762.57;146518;1150;104606;-69
2021/01/18 05:47:11;;;;;;;76.60;20.85;;;;;;;-11.82;51.97;100776.27;147055;1150;104636;-68
2021/01/18 05:50:17;;;;;;;77.90;21.20;;;;;;;-11.78;51.94;100770.25;146992;1150;104612;-68
2021/01/18 05:53:29;;;;;;;90.40;23.40;;;;;;;-11.72;52.08;100771.12;146870;1150;104557;-69
2021/01/18 05:56:44;;;;;;;103.00;25.40;;;;;;;-11.66;52.46;100770.27;146478;1151;104404;-68
2021/01/18 05:59:48;;;;;;;98.23;25.53;;;;;;;-11.63;52.41;100769.40;146898;1150;104540;-67
2021/01/18 06:02:52;;;;;;;107.63;26.68;;;;;;;-11.55;52.44;100770.24;146782;1150;104560;-69
2021/01/18 06:05:56;;;;;;;105.07;28.77;;;;;;;-11.45;52.94;100761.63;146860;1150;104517;-68
2021/01/18 06:08:59;;;;;;;103.12;27.45;;;;;;;-11.39;52.80;100758.20;147076;1149;104481;-68
2021/01/18 06:12:21;;;;;;;111.30;28.38;;;;;;;-11.42;52.79;100759.07;147089;1150;104489;-69
2021/01/18 06:15:26;;;;;;;89.10;25.60;;;;;;;-11.37;52.89;100759.93;146835;1149;104851;-68
2021/01/18 06:18:31;;;;;;;106.35;26.82;;;;;;;-11.34;52.62;100767.62;146798;1151;104505;-68
2021/01/18 06:21:39;;;;;;;112.77;28.98;;;;;;;-11.26;53.18;100762.47;147208;1148;104608;-68
2021/01/18 06:24:43;;;;;;;96.47;28.10;;;;;;;-11.08;52.69;100765.00;146898;1149;104485;-68
2021/01/18 06:27:46;;;;;;;132.03;34.60;;;;;;;-11.04;53.51;100752.13;146633;1151;104470;-68
2021/01/18 06:30:55;;;;;;;217.43;55.40;;;;;;;-11.02;52.32;100755.55;146567;1149;104527;-69
2021/01/18 06:34:00;;;;;;;203.03;56.03;;;;;;;-11.02;53.64;100758.13;146692;1148;104560;-62
2021/01/18 06:37:04;;;;;;;112.90;32.33;;;;;;;-11.00;52.83;100743.52;146742;1150;104599;-62
2021/01/18 06:40:09;;;;;;;151.12;39.25;;;;;;;-10.97;53.77;100756.38;146959;1150;104476;-62
2021/01/18 06:43:20;;;;;;;138.12;39.05;;;;;;;-11.03;53.72;100757.25;147004;1149;104548;-62
2021/01/18 06:46:25;;;;;;;88.27;25.35;;;;;;;-10.97;53.09;100764.10;146950;1151;104473;-63
2021/01/18 06:49:29;;;;;;;92.62;28.75;;;;;;;-10.86;53.92;100760.62;147087;1149;104620;-61
2021/01/18 06:52:34;;;;;;;72.55;22.05;;;;;;;-10.75;53.59;100758.01;147108;1150;104652;-61
2021/01/18 06:55:45;;;;;;;85.30;29.23;;;;;;;-10.61;53.48;100762.25;147113;1149;104470;-63
2021/01/18 06:59:05;;;;;;;295.80;80.53;;;;;;;-10.52;54.56;100767.37;146885;1150;104484;-62
2021/01/18 07:02:31;;;;;;;264.42;78.72;;;;;;;-10.47;53.60;100770.76;147070;1151;104672;-64
2021/01/18 07:05:37;;;;;;;116.93;37.20;;;;;;;-10.44;53.70;100767.33;147021;1150;104553;-61
2021/01/18 07:08:43;;;;;;;58.77;20.57;;;;;;;-10.40;53.76;100769.88;147076;1151;104576;-62
2021/01/18 07:11:46;;;;;;;99.65;28.10;;;;;;;-10.36;53.23;100765.55;147045;1151;104505;-62
2021/01/18 07:14:58;;;;;;;50.45;15.83;;;;;;;-10.32;53.42;100764.66;147010;1151;104567;-62
2021/01/18 07:18:07;;;;;;;58.45;17.82;;;;;;;-10.33;53.50;100774.14;147057;1150;104548;-62
2021/01/18 07:21:17;;;;;;;47.58;14.95;;;;;;;-10.29;54.32;100774.95;147084;1149;104593;-62
2021/01/18 07:24:28;;;;;;;50.50;17.32;;;;;;;-10.24;54.32;100772.33;147104;1150;104553;-62
2021/01/18 07:27:40;;;;;;;146.72;44.90;;;;;;;-10.16;54.18;100776.59;147045;1151;104482;-62
2021/01/18 07:30:44;;;;;;;75.15;29.10;;;;;;;-10.14;54.21;100771.39;146979;1150;104483;-62
2021/01/18 07:33:47;;;;;;;41.45;14.58;;;;;;;-10.09;53.73;100774.81;147092;1150;104483;-63
2021/01/18 07:36:51;;;;;;;44.13;13.62;;;;;;;-10.00;53.41;100776.48;147101;1150;104538;-63
2021/01/18 07:39:54;;;;;;;79.92;27.13;;;;;;;-9.99;53.68;100784.20;147026;1150;104578;-57
2021/01/18 07:42:57;;;;;;;66.33;20.02;;;;;;;-9.96;54.01;100786.77;146995;1149;104982;-62
2021/01/18 07:46:40;;;;;;;77.37;22.45;;;;;;;-9.89;54.21;100801.36;146425;1150;104423;-61
2021/01/18 07:49:48;;;;;;;78.33;21.97;;;;;;;-9.84;53.79;100809.05;146692;1150;104479;-62
2021/01/18 07:52:58;;;;;;;100.73;29.17;;;;;;;-9.85;53.31;100812.52;146995;1150;104488;-62
2021/01/18 07:56:02;;;;;;;92.55;30.15;;;;;;;-9.81;53.51;100810.75;147070;1151;104506;-62
2021/01/18 07:59:07;;;;;;;71.15;21.60;;;;;;;-9.83;53.62;100810.78;146833;1150;104457;-61
2021/01/18 08:02:22;;;;;;;89.63;24.73;;;;;;;-9.82;53.91;100814.22;147011;1150;104474;-62
2021/01/18 08:05:26;;;;;;;78.60;22.37;;;;;;;-9.74;53.63;100817.59;146679;1148;104482;-61
2021/01/18 08:08:30;;;;;;;135.20;34.80;;;;;;;-9.72;53.49;100816.73;147019;1148;104485;-62
2021/01/18 08:11:33;;;;;;;66.90;20.23;;;;;;;-9.71;53.53;100815.84;147084;1151;104614;-61
2021/01/18 08:14:37;;;;;;;62.43;20.67;;;;;;;-9.68;53.60;100820.13;147082;1150;104479;-61
2021/01/18 08:17:40;;;;;;;64.65;19.92;;;;;;;-9.67;53.28;100819.27;147110;1150;104468;-61
2021/01/18 08:20:43;;;;;;;68.50;22.37;;;;;;;-9.70;53.90;100822.73;147078;1150;104547;-61
2021/01/18 08:23:47;;;;;;;88.60;27.85;;;;;;;-9.72;53.65;100814.15;146731;1150;104479;-61
2021/01/18 08:26:58;;;;;;;351.52;105.70;;;;;;;-9.71;53.77;100812.41;147047;1148;104574;-62
2021/01/18 08:30:14;;;;;;;125.62;42.17;;;;;;;-9.64;53.99;100816.67;146885;1150;104483;-63
2021/01/18 08:33:24;;;;;;;80.32;26.52;;;;;;;-9.59;53.72;100820.05;147087;1148;104555;-61
2021/01/18 08:36:34;;;;;;;76.93;24.00;;;;;;;-9.48;53.62;100807.06;147017;1148;104483;-63
2021/01/18 08:44:53;;;;;;;311.50;89.03;;;;;;;-9.42;53.80;100803.57;146646;1150;104655;-63
2021/01/18 08:51:49;;;;;;;65.67;24.25;;;;;;;-9.38;54.17;100803.52;146618;1151;104595;-62
2021/01/18 08:59:16;;;;;;;64.15;19.32;;;;;;;-9.03;53.77;100796.30;145789;1153;104733;-61
2021/01/18 09:02:19;;;;;;;88.58;31.42;;;;;;;-9.00;53.86;100801.45;146169;1151;104678;-62
2021/01/18 09:05:25;;;;;;;96.63;34.50;;;;;;;-8.94;54.07;100796.20;146036;1152;104485;-61
2021/01/18 09:08:29;;;;;;;86.42;26.80;;;;;;;-8.87;54.02;100794.39;146187;1153;104809;-62
2021/01/18 09:11:33;;;;;;;86.05;26.12;;;;;;;-8.79;53.77;100797.77;146741;1151;104582;-61
2021/01/18 09:14:36;;;;;;;118.50;43.90;;;;;;;-8.77;53.68;100788.27;146321;1151;104755;-62
2021/01/18 09:17:39;;;;;;;72.80;25.15;;;;;;;-8.77;53.98;100783.94;146122;1151;104828;-63
2021/01/18 09:20:44;;;;;;;105.07;36.07;;;;;;;-8.67;53.98;100781.24;146342;1150;104669;-63
2021/01/18 09:23:48;;;;;;;74.20;23.57;;;;;;;-8.61;54.19;100781.16;146544;1151;105835;-63
2021/01/18 09:26:52;;;;;;;81.08;26.50;;;;;;;-8.49;54.10;100780.99;146907;1150;104622;-62
2021/01/18 09:30:03;;;;;;;201.77;63.50;;;;;;;-8.37;53.68;100782.53;146915;1151;104695;-61
2021/01/18 09:33:09;;;;;;;131.60;50.73;;;;;;;-8.29;53.28;100781.56;146714;1150;104533;-61
2021/01/18 09:36:14;;;;;;;114.92;38.30;;;;;;;-8.25;53.49;100776.36;146378;1150;104652;-62
2021/01/18 09:39:21;;;;;;;112.63;38.70;;;;;;;-8.25;53.93;100772.02;146379;1151;104556;-62
2021/01/18 09:42:26;;;;;;;82.95;26.97;;;;;;;-8.17;53.91;100764.15;146444;1150;104984;-64
2021/01/18 09:45:29;;;;;;;97.85;29.87;;;;;;;-8.17;53.68;100772.77;147025;1149;104757;-61
2021/01/18 09:48:33;;;;;;;74.53;22.90;;;;;;;-8.18;53.57;100771.06;146990;1150;104773;-62
2021/01/18 09:51:37;;;;;;;72.60;24.37;;;;;;;-8.17;53.58;100770.17;146929;1150;104742;-61
2021/01/18 09:54:41;;;;;;;75.37;23.95;;;;;;;-8.17;53.32;100769.33;146742;1150;104671;-62
2021/01/18 09:57:48;;;;;;;82.67;26.73;;;;;;;-8.15;53.34;100770.16;146842;1150;104653;-61
2021/01/18 10:00:51;;;;;;;211.77;63.90;;;;;;;-8.13;53.33;100778.75;146935;1150;104691;-61
2021/01/18 10:03:57;;;;;;;346.85;89.55;;;;;;;-8.05;53.27;100766.55;146661;1149;104751;-62
2021/01/18 10:07:06;;;;;;;127.83;40.63;;;;;;;-8.04;53.45;100768.27;146524;1149;105030;-61
2021/01/18 10:10:11;;;;;;;123.02;44.05;;;;;;;-8.00;53.42;100772.52;146900;1150;104461;-62
2021/01/18 10:13:18;;;;;;;68.95;23.42;;;;;;;-7.96;53.52;100775.92;146685;1150;104947;-62
2021/01/18 10:16:22;;;;;;;84.37;28.70;;;;;;;-7.87;53.69;100785.27;146840;1149;104629;-61
2021/01/18 10:19:25;;;;;;;432.08;138.37;;;;;;;-7.91;53.82;100776.69;146919;1151;104689;-61
2021/01/18 10:22:36;;;;;;;144.07;47.77;;;;;;;-7.80;53.50;100774.80;146682;1150;104643;-61
2021/01/18 10:25:39;;;;;;;399.62;130.78;;;;;;;-7.72;54.12;100779.85;146468;1150;104567;-63
2021/01/18 10:28:59;;;;;;;141.15;46.58;;;;;;;-7.67;53.67;100783.23;146918;1150;104634;-63
2021/01/18 10:32:03;;;;;;;101.07;33.00;;;;;;;-7.61;53.92;100783.13;146940;1150;104687;-62
2021/01/18 10:35:26;;;;;;;93.27;28.77;;;;;;;-7.60;53.16;100779.67;146706;1151;104585;-62
2021/01/18 10:38:38;;;;;;;294.07;76.57;;;;;;;-7.66;53.79;100777.16;146965;1151;104577;-63
2021/01/18 10:41:44;;;;;;;111.28;38.28;;;;;;;-7.57;54.08;100784.78;146805;1148;104468;-61
2021/01/18 10:44:51;;;;;;;104.50;35.52;;;;;;;-7.66;53.88;100776.31;146504;1150;104482;-62
2021/01/18 10:47:56;;;;;;;188.07;64.90;;;;;;;-7.64;53.80;100785.78;147079;1149;105100;-63
2021/01/18 10:51:01;;;;;;;96.17;32.15;;;;;;;-7.44;54.15;100779.41;146966;1150;104573;-58
2021/01/18 10:58:28;;;;;;;78.52;26.20;;;;;;;-7.19;53.48;100775.49;147040;1150;104568;-62
2021/01/18 11:01:31;;;;;;;75.57;24.90;;;;;;;-7.07;54.17;100769.22;147099;1148;104474;-61
2021/01/18 11:04:45;;;;;;;77.30;25.45;;;;;;;-7.04;53.94;100771.77;147066;1148;104620;-61
2021/01/18 11:07:48;;;;;;;77.80;24.57;;;;;;;-7.08;52.87;100762.34;146952;1150;104559;-62
2021/01/18 11:10:51;;;;;;;85.92;29.63;;;;;;;-7.09;53.39;100764.95;147051;1150;104511;-63
2021/01/18 11:14:03;;;;;;;97.55;33.83;;;;;;;-7.12;52.79;100756.35;147078;1150;104531;-62
2021/01/18 11:17:08;;;;;;;73.50;25.75;;;;;;;-7.12;53.77;100745.98;147025;1151;104464;-61
2021/01/18 11:20:22;;;;;;;79.20;27.30;;;;;;;-7.13;53.24;100744.25;146922;1149;104607;-61
2021/01/18 11:23:26;;;;;;;76.90;26.10;;;;;;;-7.11;52.77;100741.64;147037;1150;104636;-63
2021/01/18 11:26:29;;;;;;;96.75;32.55;;;;;;;-7.14;53.38;100732.19;146548;1150;104556;-63
2021/01/18 11:29:32;;;;;;;84.77;31.33;;;;;;;-7.19;53.06;100734.00;146794;1150;104486;-62
2021/01/18 11:32:35;;;;;;;226.40;61.45;;;;;;;-7.22;53.42;100725.42;147074;1150;104489;-61
2021/01/18 11:35:39;;;;;;;766.92;259.80;;;;;;;-7.20;53.89;100721.06;147128;1150;104593;-63
2021/01/18 11:38:42;;;;;;;338.73;102.87;;;;;;;-7.21;53.65;100715.03;147118;1150;104677;-61
2021/01/18 11:41:45;;;;;;;165.25;57.08;;;;;;;-7.21;53.16;100714.19;146981;1149;104489;-61
2021/01/18 11:44:48;;;;;;;127.05;45.85;;;;;;;-7.22;53.86;100715.89;147003;1148;105087;-61
2021/01/18 11:47:52;;;;;;;199.10;73.20;;;;;;;-7.22;54.00;100717.64;147095;1148;104502;-62
2021/01/18 11:50:56;;;;;;;131.45;48.58;;;;;;;-7.35;53.68;100712.70;146946;1148;104635;-63
2021/01/18 11:53:59;;;;;;;166.90;60.75;;;;;;;-7.38;53.26;100711.91;147080;1148;104476;-61
2021/01/18 11:57:06;;;;;;;153.77;54.90;;;;;;;-7.35;53.93;100704.92;147109;1148;104566;-61
2021/01/18 12:00:13;;;;;;;104.72;35.38;;;;;;;-7.42;54.01;100708.51;147106;1147;104553;-64
2021/01/18 12:03:16;;;;;;;119.93;41.10;;;;;;;-7.39;53.02;100704.99;147099;1148;104481;-64
2021/01/18 12:06:19;;;;;;;168.20;64.65;;;;;;;-7.43;53.24;100693.82;147047;1148;104617;-64
2021/01/18 12:09:22;;;;;;;180.05;65.75;;;;;;;-7.44;53.69;100697.31;147028;1148;104469;-61
2021/01/18 12:12:26;;;;;;;141.93;50.73;;;;;;;-7.44;53.67;100692.13;147021;1148;104524;-61
2021/01/18 12:15:29;;;;;;;230.18;89.42;;;;;;;-7.42;53.45;100689.52;147147;1148;104483;-62
2021/01/18 12:18:33;;;;;;;142.40;49.60;;;;;;;-7.46;54.13;100695.64;147103;1148;104479;-63
2021/01/18 12:21:43;;;;;;;128.80;42.90;;;;;;;-7.47;53.89;100696.52;146955;1148;104582;-64
2021/01/18 12:24:46;;;;;;;183.50;70.28;;;;;;;-7.46;54.01;100693.05;146853;1148;105061;-61
2021/01/18 12:27:50;;;;;;;144.57;49.05;;;;;;;-7.40;53.88;100692.94;146848;1148;104533;-64
2021/01/18 12:30:53;;;;;;;207.43;72.82;;;;;;;-7.38;53.22;100691.16;146806;1148;104464;-64
2021/01/18 12:33:59;;;;;;;136.50;44.67;;;;;;;-7.36;52.96;100697.17;147400;1148;104561;-61
2021/01/18 12:37:03;;;;;;;112.27;37.10;;;;;;;-7.42;53.67;100692.95;147102;1148;104556;-61
2021/01/18 12:40:08;;;;;;;110.12;34.38;;;;;;;-7.39;53.61;100692.91;146995;1150;104588;-61
2021/01/18 12:43:16;;;;;;;114.52;39.60;;;;;;;-7.39;52.98;100690.31;147010;1150;106108;-61
2021/01/18 12:46:20;;;;;;;89.05;30.50;;;;;;;-7.40;53.37;100691.19;146910;1150;104483;-61
2021/01/18 12:49:23;;;;;;;105.17;33.48;;;;;;;-7.44;53.33;100696.47;147014;1150;104560;-63
2021/01/18 12:52:26;;;;;;;131.15;40.95;;;;;;;-7.46;53.30;100691.30;146728;1150;104865;-62
2021/01/18 12:55:30;;;;;;;115.47;34.25;;;;;;;-7.45;53.70;100682.62;146881;1148;104572;-62
2021/01/18 12:58:33;;;;;;;122.22;40.70;;;;;;;-7.54;53.07;100683.67;146771;1149;104530;-63
2021/01/18 13:01:37;;;;;;;120.60;36.00;;;;;;;-7.57;53.80;100675.94;147069;1148;104575;-62
2021/01/18 13:04:40;;;;;;;110.20;35.35;;;;;;;-7.58;52.95;100683.73;147171;1148;104547;-62
2021/01/18 13:07:49;;;;;;;105.10;35.68;;;;;;;-7.59;52.95;100677.70;146839;1150;104584;-62
2021/01/18 13:11:03;;;;;;;117.77;36.73;;;;;;;-7.64;53.50;100679.55;146871;1150;104538;-62
2021/01/18 13:14:07;;;;;;;126.42;38.23;;;;;;;-7.69;53.53;100670.99;147056;1150;104482;-62
2021/01/18 13:17:10;;;;;;;111.83;35.33;;;;;;;-7.74;53.50;100667.62;146900;1150;104545;-62
2021/01/18 13:20:15;;;;;;;109.53;34.47;;;;;;;-7.75;52.98;100666.77;146707;1148;104471;-62
2021/01/18 13:23:19;;;;;;;114.62;37.60;;;;;;;-7.82;53.39;100670.34;147137;1148;104485;-62
2021/01/18 13:26:22;;;;;;;116.62;38.08;;;;;;;-7.85;53.25;100669.54;146603;1150;104584;-62
2021/01/18 13:29:26;;;;;;;108.00;36.47;;;;;;;-7.85;53.21;100672.13;147007;1149;104560;-64
2021/01/18 13:32:30;;;;;;;110.85;35.68;;;;;;;-7.85;53.13;100664.36;147053;1150;104463;-63
2021/01/18 13:35:33;;;;;;;154.57;48.78;;;;;;;-7.88;52.84;100670.45;147045;1148;104483;-63
2021/01/18 13:38:36;;;;;;;113.68;39.05;;;;;;;-7.88;53.45;100664.43;147041;1151;104559;-62
2021/01/18 13:41:40;;;;;;;125.25;39.40;;;;;;;-7.96;53.21;100673.18;147022;1150;104591;-62
2021/01/18 13:44:43;;;;;;;125.70;43.75;;;;;;;-8.02;52.96;100668.11;146436;1150;104459;-62
2021/01/18 13:47:46;;;;;;;120.40;37.73;;;;;;;-8.08;53.34;100673.39;146719;1150;104538;-62
2021/01/18 13:50:50;;;;;;;121.65;35.00;;;;;;;-8.20;53.18;100661.47;146999;1150;104581;-62
2021/01/18 13:53:54;;;;;;;118.73;35.13;;;;;;;-8.30;53.18;100653.00;146984;1149;104559;-61
2021/01/18 13:56:57;;;;;;;127.47;40.28;;;;;;;-8.31;53.31;100666.84;147072;1150;104589;-62